sensor_id;sensor_type;location;lat;lon;timestamp;pressure;altitude;pressure_sealevel;temperature;humidity
10652;BME280;5374;42.742;23.266;2024-02-15T00:02:36;95907.91;;;5.12;83.47
10652;BME280;5374;42.742;23.266;2024-02-15T00:05:23;95901.63;;;5.13;83.54
10652;BME280;5374;42.742;23.266;2024-02-15T00:08:10;95906.47;;;5.23;82.43
10652;BME280;5374;42.742;23.266;2024-02-15T00:10:57;95899.38;;;5.24;82.25
10652;BME280;5374;42.742;23.266;2024-02-15T00:13:44;95888.69;;;5.12;82.91
10652;BME280;5374;42.742;23.266;2024-02-15T00:16:33;95912.97;;;5.14;82.95
10652;BME280;5374;42.742;23.266;2024-02-15T00:19:21;95911.75;;;5.17;82.29
10652;BME280;5374;42.742;23.266;2024-02-15T00:22:08;95895.56;;;5.06;82.39
10652;BME280;5374;42.742;23.266;2024-02-15T00:24:56;95913.38;;;5.11;82.43
10652;BME280;5374;42.742;23.266;2024-02-15T00:27:43;95913.38;;;5.11;82.75
10652;BME280;5374;42.742;23.266;2024-02-15T00:30:31;95913.19;;;5.12;82.63
10652;BME280;5374;42.742;23.266;2024-02-15T00:33:19;95922.69;;;5.13;82.66
10652;BME280;5374;42.742;23.266;2024-02-15T00:36:08;95915.19;;;5.10;82.91
10652;BME280;5374;42.742;23.266;2024-02-15T00:38:55;95920.66;;;5.09;82.93
10652;BME280;5374;42.742;23.266;2024-02-15T00:41:42;95918.84;;;5.16;82.88
10652;BME280;5374;42.742;23.266;2024-02-15T00:44:29;95917.44;;;5.13;83.33
10652;BME280;5374;42.742;23.266;2024-02-15T00:47:16;95904.91;;;4.96;83.25
10652;BME280;5374;42.742;23.266;2024-02-15T00:50:08;95907.72;;;4.94;83.03
10652;BME280;5374;42.742;23.266;2024-02-15T00:52:55;95918.22;;;5.01;83.02
10652;BME280;5374;42.742;23.266;2024-02-15T00:55:42;95920.84;;;5.01;82.95
10652;BME280;5374;42.742;23.266;2024-02-15T00:58:30;95911.97;;;5.02;83.01
10652;BME280;5374;42.742;23.266;2024-02-15T01:01:17;95920.25;;;5.05;83.40
10652;BME280;5374;42.742;23.266;2024-02-15T01:04:04;95925.50;;;4.99;82.99
10652;BME280;5374;42.742;23.266;2024-02-15T01:06:53;95912.59;;;4.91;83.00
10652;BME280;5374;42.742;23.266;2024-02-15T01:09:40;95918.25;;;4.88;83.09
10652;BME280;5374;42.742;23.266;2024-02-15T01:12:27;95914.59;;;4.89;83.70
10652;BME280;5374;42.742;23.266;2024-02-15T01:15:14;95893.97;;;4.72;84.04
10652;BME280;5374;42.742;23.266;2024-02-15T01:18:04;95886.44;;;4.76;83.29
10652;BME280;5374;42.742;23.266;2024-02-15T01:20:51;95900.00;;;4.79;83.66
10652;BME280;5374;42.742;23.266;2024-02-15T01:23:39;95914.56;;;4.75;84.17
10652;BME280;5374;42.742;23.266;2024-02-15T01:26:26;95917.84;;;4.71;84.14
10652;BME280;5374;42.742;23.266;2024-02-15T01:29:13;95911.16;;;4.68;85.04
10652;BME280;5374;42.742;23.266;2024-02-15T01:32:01;95912.56;;;4.64;85.39
10652;BME280;5374;42.742;23.266;2024-02-15T01:34:48;95913.97;;;4.67;85.79
10652;BME280;5374;42.742;23.266;2024-02-15T01:37:39;95906.50;;;4.70;85.37
10652;BME280;5374;42.742;23.266;2024-02-15T01:40:27;95905.06;;;4.74;85.95
10652;BME280;5374;42.742;23.266;2024-02-15T01:43:15;95902.03;;;4.77;85.74
10652;BME280;5374;42.742;23.266;2024-02-15T01:46:07;95908.72;;;4.87;85.32
10652;BME280;5374;42.742;23.266;2024-02-15T01:48:55;95907.09;;;4.86;85.24
10652;BME280;5374;42.742;23.266;2024-02-15T01:51:42;95862.19;;;4.67;83.40
10652;BME280;5374;42.742;23.266;2024-02-15T01:54:30;95915.41;;;4.89;83.43
10652;BME280;5374;42.742;23.266;2024-02-15T01:57:19;95914.59;;;4.89;83.21
10652;BME280;5374;42.742;23.266;2024-02-15T02:00:07;95920.66;;;4.82;83.82
10652;BME280;5374;42.742;23.266;2024-02-15T02:02:56;95920.66;;;4.82;83.65
10652;BME280;5374;42.742;23.266;2024-02-15T02:05:48;95923.47;;;4.74;84.10
10652;BME280;5374;42.742;23.266;2024-02-15T02:08:35;95919.44;;;4.65;84.69
10652;BME280;5374;42.742;23.266;2024-02-15T02:11:22;95919.44;;;4.72;84.40
10652;BME280;5374;42.742;23.266;2024-02-15T02:14:11;95920.84;;;4.68;84.73
10652;BME280;5374;42.742;23.266;2024-02-15T02:17:10;95926.31;;;4.66;85.17
10652;BME280;5374;42.742;23.266;2024-02-15T02:19:57;95922.06;;;4.65;85.03
10652;BME280;5374;42.742;23.266;2024-02-15T02:22:46;95923.69;;;4.66;85.33
10652;BME280;5374;42.742;23.266;2024-02-15T02:25:36;95924.72;;;4.72;84.94
10652;BME280;5374;42.742;23.266;2024-02-15T02:28:23;95923.69;;;4.66;85.76
10652;BME280;5374;42.742;23.266;2024-02-15T02:31:10;95927.94;;;4.67;84.87
10652;BME280;5374;42.742;23.266;2024-02-15T02:33:57;95919.22;;;4.60;84.45
10652;BME280;5374;42.742;23.266;2024-02-15T02:36:44;95929.53;;;4.62;85.11
10652;BME280;5374;42.742;23.266;2024-02-15T02:39:33;95937.84;;;4.59;85.36
10652;BME280;5374;42.742;23.266;2024-02-15T02:42:22;95933.78;;;4.56;85.67
10652;BME280;5374;42.742;23.266;2024-02-15T02:45:09;95926.69;;;4.57;85.63
10652;BME280;5374;42.742;23.266;2024-02-15T02:47:56;95932.78;;;4.64;85.29
10652;BME280;5374;42.742;23.266;2024-02-15T02:50:43;95932.81;;;4.70;85.39
10652;BME280;5374;42.742;23.266;2024-02-15T02:53:31;95939.25;;;4.74;84.87
10652;BME280;5374;42.742;23.266;2024-02-15T02:56:18;95936.44;;;4.63;85.76
10652;BME280;5374;42.742;23.266;2024-02-15T02:59:06;95935.63;;;4.62;85.88
10652;BME280;5374;42.742;23.266;2024-02-15T03:01:54;95934.00;;;4.68;85.64
10652;BME280;5374;42.742;23.266;2024-02-15T03:04:43;95928.72;;;4.61;85.54
10652;BME280;5374;42.742;23.266;2024-02-15T03:07:32;95934.78;;;4.55;85.60
10652;BME280;5374;42.742;23.266;2024-02-15T03:10:20;95938.41;;;4.41;86.73
10652;BME280;5374;42.742;23.266;2024-02-15T03:13:07;95946.50;;;4.39;87.65
10652;BME280;5374;42.742;23.266;2024-02-15T03:15:57;95939.19;;;4.35;87.65
10652;BME280;5374;42.742;23.266;2024-02-15T03:18:44;95948.66;;;4.29;88.14
10652;BME280;5374;42.742;23.266;2024-02-15T03:21:31;95944.44;;;4.28;88.44
10652;BME280;5374;42.742;23.266;2024-02-15T03:24:18;95946.50;;;4.39;88.55
10652;BME280;5374;42.742;23.266;2024-02-15T03:27:07;95941.44;;;4.38;88.36
10652;BME280;5374;42.742;23.266;2024-02-15T03:29:54;95949.94;;;4.40;88.72
10652;BME280;5374;42.742;23.266;2024-02-15T03:32:44;95956.63;;;4.42;88.50
10652;BME280;5374;42.742;23.266;2024-02-15T03:35:32;95955.00;;;4.41;88.05
10652;BME280;5374;42.742;23.266;2024-02-15T03:38:19;95956.03;;;4.47;87.61
10652;BME280;5374;42.742;23.266;2024-02-15T03:41:06;95947.53;;;4.45;87.31
10652;BME280;5374;42.742;23.266;2024-02-15T03:43:53;95956.03;;;4.47;87.43
10652;BME280;5374;42.742;23.266;2024-02-15T03:46:40;95958.25;;;4.43;87.03
10652;BME280;5374;42.742;23.266;2024-02-15T03:49:29;95962.66;;;4.36;86.97
10652;BME280;5374;42.742;23.266;2024-02-15T03:52:17;95950.09;;;4.32;87.35
10652;BME280;5374;42.742;23.266;2024-02-15T03:55:05;95960.97;;;4.16;88.65
10652;BME280;5374;42.742;23.266;2024-02-15T03:57:53;95960.59;;;4.19;88.06
10652;BME280;5374;42.742;23.266;2024-02-15T04:00:42;95961.97;;;4.15;88.73
10652;BME280;5374;42.742;23.266;2024-02-15T04:03:30;95962.22;;;4.20;88.20
10652;BME280;5374;42.742;23.266;2024-02-15T04:06:19;95960.16;;;4.15;88.21
10652;BME280;5374;42.742;23.266;2024-02-15T04:09:07;95959.78;;;4.18;88.65
10652;BME280;5374;42.742;23.266;2024-02-15T04:11:56;95943.75;;;4.00;89.02
10652;BME280;5374;42.742;23.266;2024-02-15T04:14:43;95951.84;;;4.05;88.87
10652;BME280;5374;42.742;23.266;2024-02-15T04:17:31;95960.94;;;4.09;88.64
10652;BME280;5374;42.742;23.266;2024-02-15T04:20:20;95958.13;;;4.10;88.59
10652;BME280;5374;42.742;23.266;2024-02-15T04:23:09;95960.75;;;4.10;88.74
10652;BME280;5374;42.742;23.266;2024-02-15T04:25:56;95870.41;;;3.57;89.34
10652;BME280;5374;42.742;23.266;2024-02-15T04:28:45;95951.19;;;3.96;90.77
10652;BME280;5374;42.742;23.266;2024-02-15T04:31:34;95936.53;;;3.74;90.01
10652;BME280;5374;42.742;23.266;2024-02-15T04:34:24;95959.22;;;3.88;90.00
10652;BME280;5374;42.742;23.266;2024-02-15T04:37:12;95951.16;;;3.83;90.67
10652;BME280;5374;42.742;23.266;2024-02-15T04:40:01;95959.28;;;3.95;90.87
10652;BME280;5374;42.742;23.266;2024-02-15T04:42:54;95974.19;;;3.88;90.40
10652;BME280;5374;42.742;23.266;2024-02-15T04:45:41;95967.72;;;3.84;91.24
10652;BME280;5374;42.742;23.266;2024-02-15T04:48:28;95968.50;;;3.84;91.97
10652;BME280;5374;42.742;23.266;2024-02-15T04:51:16;95975.34;;;3.78;92.14
10652;BME280;5374;42.742;23.266;2024-02-15T04:54:05;95974.97;;;3.82;91.31
10652;BME280;5374;42.742;23.266;2024-02-15T04:56:54;95997.81;;;3.88;91.56
10652;BME280;5374;42.742;23.266;2024-02-15T04:59:42;95961.19;;;3.73;91.79
10652;BME280;5374;42.742;23.266;2024-02-15T05:02:32;95984.09;;;3.92;91.16
10652;BME280;5374;42.742;23.266;2024-02-15T05:05:22;95987.53;;;3.93;91.06
10652;BME280;5374;42.742;23.266;2024-02-15T05:08:10;95998.25;;;3.91;91.14
10652;BME280;5374;42.742;23.266;2024-02-15T05:10:57;95999.25;;;3.90;90.60
10652;BME280;5374;42.742;23.266;2024-02-15T05:13:46;95997.44;;;3.91;90.39
10652;BME280;5374;42.742;23.266;2024-02-15T05:16:35;96004.13;;;3.93;90.51
10652;BME280;5374;42.742;23.266;2024-02-15T05:19:29;96001.69;;;3.92;90.81
10652;BME280;5374;42.742;23.266;2024-02-15T05:22:18;95994.44;;;3.94;91.29
10652;BME280;5374;42.742;23.266;2024-02-15T05:25:06;96007.94;;;3.91;91.64
10652;BME280;5374;42.742;23.266;2024-02-15T05:27:54;96007.31;;;3.89;91.07
10652;BME280;5374;42.742;23.266;2024-02-15T05:30:45;96004.88;;;3.87;90.94
10652;BME280;5374;42.742;23.266;2024-02-15T05:33:32;96017.63;;;3.90;91.53
10652;BME280;5374;42.742;23.266;2024-02-15T05:36:21;96009.38;;;3.93;90.73
10652;BME280;5374;42.742;23.266;2024-02-15T05:39:09;96019.13;;;3.99;90.14
10652;BME280;5374;42.742;23.266;2024-02-15T05:42:00;96021.75;;;3.99;90.93
10652;BME280;5374;42.742;23.266;2024-02-15T05:44:47;96021.56;;;4.01;90.63
10652;BME280;5374;42.742;23.266;2024-02-15T05:47:38;96031.44;;;3.99;90.23
10652;BME280;5374;42.742;23.266;2024-02-15T05:50:25;96031.25;;;4.07;90.19
10652;BME280;5374;42.742;23.266;2024-02-15T05:53:15;96031.50;;;4.12;89.90
10652;BME280;5374;42.742;23.266;2024-02-15T05:56:03;96031.72;;;4.17;89.48
10652;BME280;5374;42.742;23.266;2024-02-15T05:58:51;96030.25;;;4.01;89.88
10652;BME280;5374;42.742;23.266;2024-02-15T06:01:38;96027.84;;;4.06;89.46
10652;BME280;5374;42.742;23.266;2024-02-15T06:04:28;96034.94;;;4.12;89.44
10652;BME280;5374;42.742;23.266;2024-02-15T06:07:15;96044.25;;;4.15;89.48
10652;BME280;5374;42.742;23.266;2024-02-15T06:10:05;96042.69;;;4.21;89.10
10652;BME280;5374;42.742;23.266;2024-02-15T06:12:53;96049.97;;;4.25;88.55
10652;BME280;5374;42.742;23.266;2024-02-15T06:15:40;96051.41;;;4.28;88.54
10652;BME280;5374;42.742;23.266;2024-02-15T06:18:28;96043.97;;;4.38;88.70
10652;BME280;5374;42.742;23.266;2024-02-15T06:21:20;96059.38;;;4.47;88.27
10652;BME280;5374;42.742;23.266;2024-02-15T06:24:07;96051.56;;;4.67;86.85
10652;BME280;5374;42.742;23.266;2024-02-15T06:26:55;96060.28;;;4.81;84.83
10652;BME280;5374;42.742;23.266;2024-02-15T06:29:45;96049.84;;;5.14;84.50
10652;BME280;5374;42.742;23.266;2024-02-15T06:32:49;96059.19;;;5.76;79.45
10652;BME280;5374;42.742;23.266;2024-02-15T06:35:54;96068.69;;;6.16;75.94
10652;BME280;5374;42.742;23.266;2024-02-15T06:39:00;96060.56;;;6.31;74.84
10652;BME280;5374;42.742;23.266;2024-02-15T06:42:05;96073.13;;;6.80;71.74
10652;BME280;5374;42.742;23.266;2024-02-15T06:44:53;96073.34;;;6.79;70.62
10652;BME280;5374;42.742;23.266;2024-02-15T06:47:41;96067.78;;;6.49;71.57
10652;BME280;5374;42.742;23.266;2024-02-15T06:50:29;96088.91;;;6.36;73.04
10652;BME280;5374;42.742;23.266;2024-02-15T06:53:16;96076.59;;;6.30;72.96
10652;BME280;5374;42.742;23.266;2024-02-15T06:56:08;96083.97;;;6.66;72.24
10652;BME280;5374;42.742;23.266;2024-02-15T06:58:55;96091.31;;;7.02;71.17
10652;BME280;5374;42.742;23.266;2024-02-15T07:01:43;96077.53;;;7.63;68.06
10652;BME280;5374;42.742;23.266;2024-02-15T07:04:30;96084.13;;;8.21;66.44
10652;BME280;5374;42.742;23.266;2024-02-15T07:07:18;96081.09;;;10.16;59.60
10652;BME280;5374;42.742;23.266;2024-02-15T07:10:05;96044.88;;;13.08;50.74
10652;BME280;5374;42.742;23.266;2024-02-15T07:12:54;96073.75;;;13.96;46.28
10652;BME280;5374;42.742;23.266;2024-02-15T07:15:42;96081.22;;;14.74;44.72
10652;BME280;5374;42.742;23.266;2024-02-15T07:18:30;96066.16;;;15.10;43.30
10652;BME280;5374;42.742;23.266;2024-02-15T07:21:17;96071.13;;;15.58;41.87
10652;BME280;5374;42.742;23.266;2024-02-15T07:24:07;96056.91;;;17.29;39.32
10652;BME280;5374;42.742;23.266;2024-02-15T07:26:55;96065.94;;;16.94;38.06
10652;BME280;5374;42.742;23.266;2024-02-15T07:29:43;96066.31;;;15.65;39.53
10652;BME280;5374;42.742;23.266;2024-02-15T07:32:31;96071.31;;;14.64;42.66
10652;BME280;5374;42.742;23.266;2024-02-15T07:35:20;96060.31;;;13.86;44.05
10652;BME280;5374;42.742;23.266;2024-02-15T07:38:10;96059.13;;;12.96;45.53
10652;BME280;5374;42.742;23.266;2024-02-15T07:40:57;96063.72;;;12.57;46.93
10652;BME280;5374;42.742;23.266;2024-02-15T07:43:46;96060.00;;;12.20;48.14
10652;BME280;5374;42.742;23.266;2024-02-15T07:46:34;96061.38;;;11.89;48.79
10652;BME280;5374;42.742;23.266;2024-02-15T07:49:24;96059.53;;;11.44;49.72
10652;BME280;5374;42.742;23.266;2024-02-15T07:52:11;96051.00;;;10.85;51.11
10652;BME280;5374;42.742;23.266;2024-02-15T07:54:59;96042.31;;;10.50;52.20
10652;BME280;5374;42.742;23.266;2024-02-15T07:57:47;96064.25;;;10.45;53.40
10652;BME280;5374;42.742;23.266;2024-02-15T08:00:34;96059.50;;;10.47;54.47
10652;BME280;5374;42.742;23.266;2024-02-15T08:03:24;96065.59;;;10.71;53.68
10652;BME280;5374;42.742;23.266;2024-02-15T08:06:16;96064.66;;;10.77;51.92
10652;BME280;5374;42.742;23.266;2024-02-15T08:09:03;96060.09;;;10.61;53.05
10652;BME280;5374;42.742;23.266;2024-02-15T08:11:51;96058.81;;;10.52;52.78
10652;BME280;5374;42.742;23.266;2024-02-15T08:14:38;96047.75;;;10.08;53.38
10652;BME280;5374;42.742;23.266;2024-02-15T08:17:25;96062.66;;;10.33;54.23
10652;BME280;5374;42.742;23.266;2024-02-15T08:20:14;96056.97;;;10.41;53.52
10652;BME280;5374;42.742;23.266;2024-02-15T08:23:06;96056.41;;;10.50;54.34
10652;BME280;5374;42.742;23.266;2024-02-15T08:25:56;96051.66;;;10.41;53.50
10652;BME280;5374;42.742;23.266;2024-02-15T08:28:43;96049.63;;;10.31;53.27
10652;BME280;5374;42.742;23.266;2024-02-15T08:31:30;96057.56;;;10.19;55.43
10652;BME280;5374;42.742;23.266;2024-02-15T08:34:18;96051.22;;;10.44;55.02
10652;BME280;5374;42.742;23.266;2024-02-15T08:37:07;96047.56;;;10.73;54.02
10652;BME280;5374;42.742;23.266;2024-02-15T08:39:54;96048.44;;;10.90;53.68
10652;BME280;5374;42.742;23.266;2024-02-15T08:42:42;96028.78;;;10.91;52.54
10652;BME280;5374;42.742;23.266;2024-02-15T08:45:30;96038.44;;;11.09;52.74
10652;BME280;5374;42.742;23.266;2024-02-15T08:48:18;96010.50;;;11.07;52.09
10652;BME280;5374;42.742;23.266;2024-02-15T08:51:05;96028.50;;;11.33;51.46
10652;BME280;5374;42.742;23.266;2024-02-15T08:53:56;96033.63;;;11.51;51.00
10652;BME280;5374;42.742;23.266;2024-02-15T08:56:43;96036.34;;;11.56;50.81
10652;BME280;5374;42.742;23.266;2024-02-15T08:59:30;96032.06;;;11.55;51.07
10652;BME280;5374;42.742;23.266;2024-02-15T09:02:18;96032.16;;;11.60;50.79
10652;BME280;5374;42.742;23.266;2024-02-15T09:05:06;96028.69;;;11.60;50.80
10652;BME280;5374;42.742;23.266;2024-02-15T09:07:54;96025.88;;;11.67;51.35
10652;BME280;5374;42.742;23.266;2024-02-15T09:10:43;96019.44;;;11.79;50.40
10652;BME280;5374;42.742;23.266;2024-02-15T09:13:30;96024.09;;;11.72;50.63
10652;BME280;5374;42.742;23.266;2024-02-15T09:16:18;96021.03;;;11.63;51.05
10652;BME280;5374;42.742;23.266;2024-02-15T09:19:07;96029.72;;;11.59;50.83
10652;BME280;5374;42.742;23.266;2024-02-15T09:21:55;96017.91;;;11.50;50.27
10652;BME280;5374;42.742;23.266;2024-02-15T09:24:43;96018.66;;;11.34;51.61
10652;BME280;5374;42.742;23.266;2024-02-15T09:27:31;96016.19;;;11.27;51.21
10652;BME280;5374;42.742;23.266;2024-02-15T09:30:18;96018.50;;;11.40;51.80
10652;BME280;5374;42.742;23.266;2024-02-15T09:33:06;95989.66;;;11.32;50.79
10652;BME280;5374;42.742;23.266;2024-02-15T09:35:53;96000.94;;;11.39;51.12
10652;BME280;5374;42.742;23.266;2024-02-15T09:38:41;96008.13;;;11.55;51.57
10652;BME280;5374;42.742;23.266;2024-02-15T09:41:28;95998.63;;;11.76;50.53
10652;BME280;5374;42.742;23.266;2024-02-15T09:44:17;96005.91;;;11.81;50.71
10652;BME280;5374;42.742;23.266;2024-02-15T09:47:05;95998.47;;;11.83;49.51
10652;BME280;5374;42.742;23.266;2024-02-15T09:49:54;95998.69;;;11.64;49.96
10652;BME280;5374;42.742;23.266;2024-02-15T09:52:45;96002.28;;;11.87;51.04
10652;BME280;5374;42.742;23.266;2024-02-15T09:55:34;95963.56;;;11.79;50.45
10652;BME280;5374;42.742;23.266;2024-02-15T09:58:21;95994.56;;;12.07;49.73
10652;BME280;5374;42.742;23.266;2024-02-15T10:01:10;95982.47;;;11.99;48.97
10652;BME280;5374;42.742;23.266;2024-02-15T10:04:01;95984.16;;;12.06;48.68
10652;BME280;5374;42.742;23.266;2024-02-15T10:06:52;95984.56;;;12.14;49.24
10652;BME280;5374;42.742;23.266;2024-02-15T10:09:40;95981.41;;;12.17;48.12
10652;BME280;5374;42.742;23.266;2024-02-15T10:12:37;95982.00;;;12.03;48.60
10652;BME280;5374;42.742;23.266;2024-02-15T10:15:30;95971.38;;;11.86;49.18
10652;BME280;5374;42.742;23.266;2024-02-15T10:18:20;95974.13;;;11.91;49.25
10652;BME280;5374;42.742;23.266;2024-02-15T10:21:08;95962.78;;;12.17;47.99
10652;BME280;5374;42.742;23.266;2024-02-15T10:24:05;95949.75;;;12.21;48.88
10652;BME280;5374;42.742;23.266;2024-02-15T10:27:00;95958.94;;;12.52;47.88
10652;BME280;5374;42.742;23.266;2024-02-15T10:29:49;95953.13;;;12.55;48.52
10652;BME280;5374;42.742;23.266;2024-02-15T10:32:39;95919.00;;;12.30;47.59
10652;BME280;5374;42.742;23.266;2024-02-15T10:35:28;95947.84;;;12.60;47.48
10652;BME280;5374;42.742;23.266;2024-02-15T10:38:15;95942.59;;;12.65;47.52
10652;BME280;5374;42.742;23.266;2024-02-15T10:41:03;95949.00;;;12.69;46.46
10652;BME280;5374;42.742;23.266;2024-02-15T10:43:52;95946.59;;;12.67;46.65
10652;BME280;5374;42.742;23.266;2024-02-15T10:46:40;95932.31;;;12.79;45.80
10652;BME280;5374;42.742;23.266;2024-02-15T10:49:28;95924.28;;;12.74;46.46
10652;BME280;5374;42.742;23.266;2024-02-15T10:52:18;95933.50;;;12.66;46.23
10652;BME280;5374;42.742;23.266;2024-02-15T10:55:08;95934.13;;;12.73;47.60
10652;BME280;5374;42.742;23.266;2024-02-15T10:58:01;95935.00;;;12.79;46.69
10652;BME280;5374;42.742;23.266;2024-02-15T11:00:50;95930.75;;;12.56;46.91
10652;BME280;5374;42.742;23.266;2024-02-15T11:03:47;95924.72;;;12.44;46.46
10652;BME280;5374;42.742;23.266;2024-02-15T11:06:38;95924.88;;;12.32;47.53
10652;BME280;5374;42.742;23.266;2024-02-15T11:09:29;95908.03;;;12.26;48.35
10652;BME280;5374;42.742;23.266;2024-02-15T11:12:16;95920.66;;;12.58;48.03
10652;BME280;5374;42.742;23.266;2024-02-15T11:15:04;95917.25;;;12.62;48.69
10652;BME280;5374;42.742;23.266;2024-02-15T11:17:52;95915.72;;;12.72;47.59
10652;BME280;5374;42.742;23.266;2024-02-15T11:20:46;95915.97;;;12.70;47.76
10652;BME280;5374;42.742;23.266;2024-02-15T11:23:34;95904.94;;;12.88;47.46
10652;BME280;5374;42.742;23.266;2024-02-15T11:26:57;95881.34;;;12.70;47.91
10652;BME280;5374;42.742;23.266;2024-02-15T11:29:49;95907.78;;;12.77;47.93
10652;BME280;5374;42.742;23.266;2024-02-15T11:32:38;95897.72;;;12.84;47.75
10652;BME280;5374;42.742;23.266;2024-02-15T11:35:29;95891.13;;;12.91;47.27
10652;BME280;5374;42.742;23.266;2024-02-15T11:38:28;95897.91;;;13.04;48.14
10652;BME280;5374;42.742;23.266;2024-02-15T11:41:18;95888.88;;;13.05;48.11
10652;BME280;5374;42.742;23.266;2024-02-15T11:44:08;95895.41;;;12.92;48.61
10652;BME280;5374;42.742;23.266;2024-02-15T11:46:55;95886.34;;;12.93;46.62
10652;BME280;5374;42.742;23.266;2024-02-15T11:49:47;95895.69;;;12.96;47.56
10652;BME280;5374;42.742;23.266;2024-02-15T11:52:34;95901.75;;;12.86;47.87
10652;BME280;5374;42.742;23.266;2024-02-15T11:55:22;95890.81;;;12.88;47.36
10652;BME280;5374;42.742;23.266;2024-02-15T11:58:09;95885.53;;;12.93;47.25
10652;BME280;5374;42.742;23.266;2024-02-15T12:01:09;95889.06;;;12.98;47.11
10652;BME280;5374;42.742;23.266;2024-02-15T12:04:14;95888.75;;;12.63;47.61
10652;BME280;5374;42.742;23.266;2024-02-15T12:07:17;95882.25;;;12.54;48.17
10652;BME280;5374;42.742;23.266;2024-02-15T12:10:22;95877.06;;;12.69;47.86
10652;BME280;5374;42.742;23.266;2024-02-15T12:13:26;95876.91;;;12.54;48.07
10652;BME280;5374;42.742;23.266;2024-02-15T12:16:32;95876.47;;;12.62;47.25
10652;BME280;5374;42.742;23.266;2024-02-15T12:19:37;95872.50;;;12.64;47.84
10652;BME280;5374;42.742;23.266;2024-02-15T12:22:27;95872.22;;;12.66;47.98
10652;BME280;5374;42.742;23.266;2024-02-15T12:25:16;95880.22;;;12.93;46.88
10652;BME280;5374;42.742;23.266;2024-02-15T12:28:06;95872.97;;;13.15;47.22
10652;BME280;5374;42.742;23.266;2024-02-15T12:30:55;95832.22;;;13.20;46.05
10652;BME280;5374;42.742;23.266;2024-02-15T12:33:44;95863.34;;;13.46;45.65
10652;BME280;5374;42.742;23.266;2024-02-15T12:36:32;95856.81;;;13.69;46.77
10652;BME280;5374;42.742;23.266;2024-02-15T12:39:24;95864.13;;;13.94;45.74
10652;BME280;5374;42.742;23.266;2024-02-15T12:42:13;95862.31;;;13.99;44.89
10652;BME280;5374;42.742;23.266;2024-02-15T12:45:00;95859.16;;;14.18;44.34
10652;BME280;5374;42.742;23.266;2024-02-15T12:47:50;95855.88;;;13.95;44.92
10652;BME280;5374;42.742;23.266;2024-02-15T12:50:39;95841.69;;;13.90;44.52
10652;BME280;5374;42.742;23.266;2024-02-15T12:53:26;95851.59;;;13.94;44.58
10652;BME280;5374;42.742;23.266;2024-02-15T12:56:20;95855.28;;;13.88;46.11
10652;BME280;5374;42.742;23.266;2024-02-15T12:59:07;95845.59;;;13.72;45.79
10652;BME280;5374;42.742;23.266;2024-02-15T13:01:54;95837.00;;;13.60;44.94
10652;BME280;5374;42.742;23.266;2024-02-15T13:04:41;95853.50;;;13.57;45.28
10652;BME280;5374;42.742;23.266;2024-02-15T13:07:30;95847.75;;;13.28;45.57
10652;BME280;5374;42.742;23.266;2024-02-15T13:10:17;95831.47;;;12.97;45.56
10652;BME280;5374;42.742;23.266;2024-02-15T13:13:04;95845.78;;;12.86;46.71
10652;BME280;5374;42.742;23.266;2024-02-15T13:15:52;95829.22;;;12.52;46.58
10652;BME280;5374;42.742;23.266;2024-02-15T13:18:39;95832.97;;;12.56;46.78
10652;BME280;5374;42.742;23.266;2024-02-15T13:21:26;95842.66;;;12.62;47.41
10652;BME280;5374;42.742;23.266;2024-02-15T13:24:17;95839.72;;;12.37;46.96
10652;BME280;5374;42.742;23.266;2024-02-15T13:27:05;95828.38;;;12.25;48.40
10652;BME280;5374;42.742;23.266;2024-02-15T13:29:52;95832.72;;;12.31;49.02
10652;BME280;5374;42.742;23.266;2024-02-15T13:32:40;95834.47;;;12.20;48.97
10652;BME280;5374;42.742;23.266;2024-02-15T13:35:27;95837.75;;;12.27;48.87
10652;BME280;5374;42.742;23.266;2024-02-15T13:38:15;95831.19;;;12.35;48.53
10652;BME280;5374;42.742;23.266;2024-02-15T13:41:09;95820.59;;;12.45;48.40
10652;BME280;5374;42.742;23.266;2024-02-15T13:43:57;95822.47;;;12.45;49.02
10652;BME280;5374;42.742;23.266;2024-02-15T13:46:46;95826.16;;;12.39;49.55
10652;BME280;5374;42.742;23.266;2024-02-15T13:49:35;95820.22;;;12.31;49.14
10652;BME280;5374;42.742;23.266;2024-02-15T13:52:22;95821.38;;;12.14;49.93
10652;BME280;5374;42.742;23.266;2024-02-15T13:55:10;95828.91;;;12.00;49.85
10652;BME280;5374;42.742;23.266;2024-02-15T13:58:00;95830.09;;;11.87;50.29
10652;BME280;5374;42.742;23.266;2024-02-15T14:00:48;95796.84;;;11.68;50.17
10652;BME280;5374;42.742;23.266;2024-02-15T14:03:35;95815.63;;;11.78;50.28
10652;BME280;5374;42.742;23.266;2024-02-15T14:06:22;95827.06;;;11.79;50.09
10652;BME280;5374;42.742;23.266;2024-02-15T14:09:09;95817.22;;;11.79;50.16
10652;BME280;5374;42.742;23.266;2024-02-15T14:11:57;95826.72;;;11.92;50.07
10652;BME280;5374;42.742;23.266;2024-02-15T14:14:46;95815.38;;;11.80;50.02
10652;BME280;5374;42.742;23.266;2024-02-15T14:17:33;95829.94;;;11.94;50.23
10652;BME280;5374;42.742;23.266;2024-02-15T14:20:20;95833.63;;;11.93;50.37
10652;BME280;5374;42.742;23.266;2024-02-15T14:23:08;95837.13;;;11.77;50.51
10652;BME280;5374;42.742;23.266;2024-02-15T14:25:59;95830.06;;;11.65;50.43
10652;BME280;5374;42.742;23.266;2024-02-15T14:28:47;95813.91;;;11.50;50.65
10652;BME280;5374;42.742;23.266;2024-02-15T14:31:36;95834.25;;;11.61;50.80
10652;BME280;5374;42.742;23.266;2024-02-15T14:34:41;95831.47;;;11.51;51.27
10652;BME280;5374;42.742;23.266;2024-02-15T14:37:28;95806.63;;;11.24;51.64
10652;BME280;5374;42.742;23.266;2024-02-15T14:40:15;95824.88;;;11.37;51.88
10652;BME280;5374;42.742;23.266;2024-02-15T14:43:03;95821.66;;;11.35;52.51
10652;BME280;5374;42.742;23.266;2024-02-15T14:45:51;95829.41;;;11.37;52.27
10652;BME280;5374;42.742;23.266;2024-02-15T14:48:40;95820.84;;;11.35;52.38
10652;BME280;5374;42.742;23.266;2024-02-15T14:51:29;95812.63;;;11.36;52.35
10652;BME280;5374;42.742;23.266;2024-02-15T14:54:18;95810.22;;;11.35;52.18
10652;BME280;5374;42.742;23.266;2024-02-15T14:57:05;95824.72;;;11.44;52.25
10652;BME280;5374;42.742;23.266;2024-02-15T14:59:52;95823.03;;;11.38;52.13
10652;BME280;5374;42.742;23.266;2024-02-15T15:02:40;95821.06;;;11.28;52.17